Main page
METAR-TAF:

METAR-TAF

Airports :

Pontoise – Cormeilles Aerodrome

Pontoise, France

latitude: 49-05-48N, longitude: 002-02-27E, elevation: 99 m

Current weather observation

The report was made 22 minutes ago, at 07:00 UTC
Wind 14 kt from the Southwest
Temperature 12°C
Humidity 88%
Pressure 998 hPa
Visibility 10 km or more
Overcast at a height of 1400 ft

METAR: LFPT 050700Z AUTO 23014KT 9999 OVC014 12/10 Q0998

Time: 09:22 (07:22 UTC)


TAF: missing

Weather observations and forecasts of more than 4000 airports (METAR and TAF reports).

The available stations are represented by yellow and red dots on the map.

Hover mouse over dot to see the name of the station.

Then click to see weather observations and forecasts.

To change the map : click on the green buttons with a black cross to zoom in, on the green button with a dash to zoom out, or on the green arrows for adjacent maps.


METAR-TAF: